Terminal Aerodrome Forecast
Issued by NWS Louisville, KY

Home | Current Version | Previous Version | Text Only | Print | Product List | Glossary On
Versions: 1 2 3 4 5 6 7 8 9 10 11 12 13 14 15 16 17
000
FTUS43 KLMK 182300
TAFLEX
TAF
KLEX 182320Z 1900/1924 32005KT P6SM VCSH OVC035
     FM190200 33006KT P6SM OVC035
     FM190800 VRB03KT 5SM BR SCT040
     FM191300 VRB03KT P6SM FEW250=

USA.gov is the U.S. government's official web portal to all federal, state and local government web resources and services.